sensor_id;sensor_type;location;lat;lon;timestamp;pressure;altitude;pressure_sealevel;temperature;humidity
54920;BME280;63804;53.120;8.764;2024-01-27T00:01:55;103132.38;;;6.55;76.63
54920;BME280;63804;53.120;8.764;2024-01-27T00:04:26;103135.00;;;6.57;76.28
54920;BME280;63804;53.120;8.764;2024-01-27T00:06:57;103132.53;;;6.49;76.35
54920;BME280;63804;53.120;8.764;2024-01-27T00:09:29;103123.91;;;6.41;76.81
54920;BME280;63804;53.120;8.764;2024-01-27T00:11:59;103127.56;;;6.31;76.89
54920;BME280;63804;53.120;8.764;2024-01-27T00:14:38;103121.31;;;6.38;76.85
54920;BME280;63804;53.120;8.764;2024-01-27T00:17:09;103118.72;;;6.35;76.81
54920;BME280;63804;53.120;8.764;2024-01-27T00:19:39;103110.88;;;6.33;76.86
54920;BME280;63804;53.120;8.764;2024-01-27T00:22:11;103128.25;;;6.41;76.77
54920;BME280;63804;53.120;8.764;2024-01-27T00:24:42;103132.72;;;6.37;76.64
54920;BME280;63804;53.120;8.764;2024-01-27T00:27:13;103124.03;;;6.33;76.92
54920;BME280;63804;53.120;8.764;2024-01-27T00:29:48;103132.06;;;6.26;76.75
54920;BME280;63804;53.120;8.764;2024-01-27T00:32:18;103129.72;;;6.07;77.52
54920;BME280;63804;53.120;8.764;2024-01-27T00:34:48;103126.00;;;6.21;77.32
54920;BME280;63804;53.120;8.764;2024-01-27T00:37:19;103134.59;;;6.30;76.97
54920;BME280;63804;53.120;8.764;2024-01-27T00:39:50;103136.44;;;6.25;76.89
54920;BME280;63804;53.120;8.764;2024-01-27T00:42:20;103132.13;;;6.21;77.31
54920;BME280;63804;53.120;8.764;2024-01-27T00:44:55;103140.88;;;6.22;76.96
54920;BME280;63804;53.120;8.764;2024-01-27T00:47:25;103152.25;;;6.24;76.98
54920;BME280;63804;53.120;8.764;2024-01-27T00:49:56;103162.81;;;6.21;77.22
54920;BME280;63804;53.120;8.764;2024-01-27T00:52:27;103168.16;;;6.16;77.47
54920;BME280;63804;53.120;8.764;2024-01-27T00:54:58;103153.38;;;6.10;77.71
54920;BME280;63804;53.120;8.764;2024-01-27T00:57:32;103144.63;;;6.08;77.51
54920;BME280;63804;53.120;8.764;2024-01-27T01:00:04;103161.31;;;6.06;77.60
54920;BME280;63804;53.120;8.764;2024-01-27T01:02:41;103156.97;;;6.03;77.90
54920;BME280;63804;53.120;8.764;2024-01-27T01:05:12;103160.31;;;6.13;77.69
54920;BME280;63804;53.120;8.764;2024-01-27T01:07:45;103167.38;;;6.09;77.42
54920;BME280;63804;53.120;8.764;2024-01-27T01:10:15;103176.25;;;6.04;77.54
54920;BME280;63804;53.120;8.764;2024-01-27T01:12:46;103182.41;;;6.03;77.63
54920;BME280;63804;53.120;8.764;2024-01-27T01:15:17;103183.16;;;6.09;77.90
54920;BME280;63804;53.120;8.764;2024-01-27T01:17:47;103189.34;;;6.08;77.64
54920;BME280;63804;53.120;8.764;2024-01-27T01:20:19;103184.91;;;6.12;77.50
54920;BME280;63804;53.120;8.764;2024-01-27T01:22:47;103179.63;;;6.12;77.39
54920;BME280;63804;53.120;8.764;2024-01-27T01:25:17;103187.59;;;6.07;77.78
54920;BME280;63804;53.120;8.764;2024-01-27T01:27:47;103183.28;;;6.03;77.93
54920;BME280;63804;53.120;8.764;2024-01-27T01:30:20;103188.53;;;6.03;77.93
54920;BME280;63804;53.120;8.764;2024-01-27T01:32:53;103192.06;;;6.01;77.91
54920;BME280;63804;53.120;8.764;2024-01-27T01:35:23;103178.00;;;6.05;77.70
54920;BME280;63804;53.120;8.764;2024-01-27T01:37:57;103179.66;;;6.09;77.66
54920;BME280;63804;53.120;8.764;2024-01-27T01:40:30;103189.25;;;6.15;77.49
54920;BME280;63804;53.120;8.764;2024-01-27T01:43:01;103185.75;;;6.13;77.42
54920;BME280;63804;53.120;8.764;2024-01-27T01:45:38;103177.94;;;6.06;77.45
54920;BME280;63804;53.120;8.764;2024-01-27T01:48:08;103184.13;;;6.05;77.49
54920;BME280;63804;53.120;8.764;2024-01-27T01:50:40;103182.19;;;6.17;77.28
54920;BME280;63804;53.120;8.764;2024-01-27T01:53:12;103188.44;;;6.09;77.30
54920;BME280;63804;53.120;8.764;2024-01-27T01:55:44;103196.41;;;6.05;77.57
54920;BME280;63804;53.120;8.764;2024-01-27T01:58:17;103193.72;;;6.06;77.66
54920;BME280;63804;53.120;8.764;2024-01-27T02:00:47;103192.00;;;6.05;77.49
54920;BME280;63804;53.120;8.764;2024-01-27T02:03:18;103191.22;;;5.99;77.60
54920;BME280;63804;53.120;8.764;2024-01-27T02:05:49;103193.03;;;5.97;78.05
54920;BME280;63804;53.120;8.764;2024-01-27T02:08:20;103194.75;;;5.99;77.64
54920;BME280;63804;53.120;8.764;2024-01-27T02:10:51;103200.03;;;5.96;77.62
54920;BME280;63804;53.120;8.764;2024-01-27T02:13:22;103203.53;;;5.95;78.07
54920;BME280;63804;53.120;8.764;2024-01-27T02:15:53;103197.41;;;5.95;77.84
54920;BME280;63804;53.120;8.764;2024-01-27T02:18:24;103200.78;;;6.04;77.79
54920;BME280;63804;53.120;8.764;2024-01-27T02:20:54;103197.38;;;5.99;77.69
54920;BME280;63804;53.120;8.764;2024-01-27T02:23:25;103200.88;;;5.98;77.54
54920;BME280;63804;53.120;8.764;2024-01-27T02:25:56;103204.38;;;5.99;77.63
54920;BME280;63804;53.120;8.764;2024-01-27T02:28:26;103208.84;;;5.94;77.67
54920;BME280;63804;53.120;8.764;2024-01-27T02:30:57;103214.94;;;5.97;77.71
54920;BME280;63804;53.120;8.764;2024-01-27T02:33:30;103207.06;;;5.94;77.42
54920;BME280;63804;53.120;8.764;2024-01-27T02:36:01;103210.59;;;5.92;77.71
54920;BME280;63804;53.120;8.764;2024-01-27T02:38:39;103206.22;;;5.91;77.86
54920;BME280;63804;53.120;8.764;2024-01-27T02:41:10;103221.91;;;6.00;77.70
54920;BME280;63804;53.120;8.764;2024-01-27T02:43:42;103215.78;;;5.99;77.28
54920;BME280;63804;53.120;8.764;2024-01-27T02:46:13;103219.28;;;5.98;77.24
54920;BME280;63804;53.120;8.764;2024-01-27T02:48:45;103217.66;;;5.88;77.76
54920;BME280;63804;53.120;8.764;2024-01-27T02:51:19;103216.75;;;5.89;77.95
54920;BME280;63804;53.120;8.764;2024-01-27T02:53:51;103228.22;;;5.83;77.64
54920;BME280;63804;53.120;8.764;2024-01-27T02:56:21;103229.19;;;5.78;78.02
54920;BME280;63804;53.120;8.764;2024-01-27T02:58:52;103234.41;;;5.81;78.15
54920;BME280;63804;53.120;8.764;2024-01-27T03:01:22;103233.44;;;5.86;77.71
54920;BME280;63804;53.120;8.764;2024-01-27T03:03:53;103243.91;;;5.91;77.53
54920;BME280;63804;53.120;8.764;2024-01-27T03:06:24;103243.13;;;5.83;77.76
54920;BME280;63804;53.120;8.764;2024-01-27T03:08:54;103244.94;;;5.81;78.25
54920;BME280;63804;53.120;8.764;2024-01-27T03:11:25;103244.03;;;5.82;77.85
54920;BME280;63804;53.120;8.764;2024-01-27T03:13:55;103240.50;;;5.83;77.54
54920;BME280;63804;53.120;8.764;2024-01-27T03:16:26;103237.84;;;5.86;77.38
54920;BME280;63804;53.120;8.764;2024-01-27T03:18:56;103246.69;;;5.79;77.60
54920;BME280;63804;53.120;8.764;2024-01-27T03:21:29;103248.53;;;5.72;77.86
54920;BME280;63804;53.120;8.764;2024-01-27T03:23:59;103249.44;;;5.73;78.20
54920;BME280;63804;53.120;8.764;2024-01-27T03:26:37;103257.25;;;5.77;78.24
54920;BME280;63804;53.120;8.764;2024-01-27T03:29:08;103259.03;;;5.74;78.10
54920;BME280;63804;53.120;8.764;2024-01-27T03:31:40;103248.44;;;5.80;77.62
54920;BME280;63804;53.120;8.764;2024-01-27T03:34:11;103244.09;;;5.76;77.99
54920;BME280;63804;53.120;8.764;2024-01-27T03:36:42;103245.09;;;5.69;77.76
54920;BME280;63804;53.120;8.764;2024-01-27T03:39:12;103250.19;;;5.79;78.07
54920;BME280;63804;53.120;8.764;2024-01-27T03:41:43;103250.25;;;5.76;78.25
54920;BME280;63804;53.120;8.764;2024-01-27T03:44:13;103253.59;;;5.87;77.55
54920;BME280;63804;53.120;8.764;2024-01-27T03:46:44;103243.16;;;5.80;77.89
54920;BME280;63804;53.120;8.764;2024-01-27T03:49:14;103255.44;;;5.79;78.03
54920;BME280;63804;53.120;8.764;2024-01-27T03:51:45;103259.91;;;5.74;78.07
54920;BME280;63804;53.120;8.764;2024-01-27T03:54:16;103241.53;;;5.73;77.87
54920;BME280;63804;53.120;8.764;2024-01-27T03:56:46;103236.22;;;5.76;78.17
54920;BME280;63804;53.120;8.764;2024-01-27T03:59:17;103233.66;;;5.73;78.08
54920;BME280;63804;53.120;8.764;2024-01-27T04:01:47;103238.09;;;5.68;77.98
54920;BME280;63804;53.120;8.764;2024-01-27T04:04:18;103241.56;;;5.70;78.12
54920;BME280;63804;53.120;8.764;2024-01-27T04:06:48;103251.19;;;5.71;78.31
54920;BME280;63804;53.120;8.764;2024-01-27T04:09:19;103258.16;;;5.76;78.13
54920;BME280;63804;53.120;8.764;2024-01-27T04:11:50;103266.03;;;5.75;77.90
54920;BME280;63804;53.120;8.764;2024-01-27T04:14:21;103267.66;;;5.83;77.58
54920;BME280;63804;53.120;8.764;2024-01-27T04:16:51;103261.69;;;5.74;77.63
54920;BME280;63804;53.120;8.764;2024-01-27T04:19:22;103274.75;;;5.78;77.65
54920;BME280;63804;53.120;8.764;2024-01-27T04:21:53;103260.88;;;5.69;77.66
54920;BME280;63804;53.120;8.764;2024-01-27T04:24:23;103270.47;;;5.73;77.52
54920;BME280;63804;53.120;8.764;2024-01-27T04:26:54;103261.63;;;5.77;77.19
54920;BME280;63804;53.120;8.764;2024-01-27T04:29:24;103274.84;;;5.71;77.53
54920;BME280;63804;53.120;8.764;2024-01-27T04:31:55;103274.88;;;5.68;77.77
54920;BME280;63804;53.120;8.764;2024-01-27T04:34:25;103284.47;;;5.72;77.51
54920;BME280;63804;53.120;8.764;2024-01-27T04:36:57;103288.94;;;5.67;77.30
54920;BME280;63804;53.120;8.764;2024-01-27T04:39:30;103278.63;;;5.48;77.67
54920;BME280;63804;53.120;8.764;2024-01-27T04:42:00;103284.63;;;5.61;77.75
54920;BME280;63804;53.120;8.764;2024-01-27T04:44:40;103289.03;;;5.59;77.53
54920;BME280;63804;53.120;8.764;2024-01-27T04:47:14;103275.94;;;5.53;77.49
54920;BME280;63804;53.120;8.764;2024-01-27T04:49:44;103281.06;;;5.65;77.31
54920;BME280;63804;53.120;8.764;2024-01-27T04:52:15;103272.38;;;5.57;77.48
54920;BME280;63804;53.120;8.764;2024-01-27T04:54:46;103279.53;;;5.47;77.56
54920;BME280;63804;53.120;8.764;2024-01-27T04:57:17;103291.72;;;5.51;77.87
54920;BME280;63804;53.120;8.764;2024-01-27T04:59:47;103289.97;;;5.52;78.03
54920;BME280;63804;53.120;8.764;2024-01-27T05:02:18;103284.66;;;5.56;77.79
54920;BME280;63804;53.120;8.764;2024-01-27T05:04:49;103286.41;;;5.56;77.62
54920;BME280;63804;53.120;8.764;2024-01-27T05:07:20;103279.47;;;5.52;77.95
54920;BME280;63804;53.120;8.764;2024-01-27T05:09:51;103287.28;;;5.56;77.74
54920;BME280;63804;53.120;8.764;2024-01-27T05:12:22;103289.06;;;5.54;77.76
54920;BME280;63804;53.120;8.764;2024-01-27T05:14:53;103295.19;;;5.55;77.87
54920;BME280;63804;53.120;8.764;2024-01-27T05:17:23;103290.84;;;5.52;77.28
54920;BME280;63804;53.120;8.764;2024-01-27T05:19:54;103283.78;;;5.57;77.30
54920;BME280;63804;53.120;8.764;2024-01-27T05:22:24;103292.59;;;5.53;77.50
54920;BME280;63804;53.120;8.764;2024-01-27T05:24:55;103292.53;;;5.56;77.49
54920;BME280;63804;53.120;8.764;2024-01-27T05:27:25;103290.75;;;5.60;77.04
54920;BME280;63804;53.120;8.764;2024-01-27T05:29:56;103291.75;;;5.48;77.46
54920;BME280;63804;53.120;8.764;2024-01-27T05:32:27;103294.31;;;5.57;77.46
54920;BME280;63804;53.120;8.764;2024-01-27T05:34:57;103297.78;;;5.59;77.23
54920;BME280;63804;53.120;8.764;2024-01-27T05:37:31;103290.06;;;5.46;77.42
54920;BME280;63804;53.120;8.764;2024-01-27T05:40:01;103303.19;;;5.44;77.38
54920;BME280;63804;53.120;8.764;2024-01-27T05:42:41;103293.50;;;5.49;77.30
54920;BME280;63804;53.120;8.764;2024-01-27T05:45:13;103310.13;;;5.51;77.01
54920;BME280;63804;53.120;8.764;2024-01-27T05:47:46;103306.69;;;5.46;77.19
54920;BME280;63804;53.120;8.764;2024-01-27T05:50:16;103303.13;;;5.52;77.29
54920;BME280;63804;53.120;8.764;2024-01-27T05:52:45;103307.63;;;5.41;77.27
54920;BME280;63804;53.120;8.764;2024-01-27T05:55:15;103311.91;;;5.48;77.49
54920;BME280;63804;53.120;8.764;2024-01-27T05:57:54;103318.94;;;5.47;77.27
54920;BME280;63804;53.120;8.764;2024-01-27T06:00:28;103310.28;;;5.39;77.24
54920;BME280;63804;53.120;8.764;2024-01-27T06:02:58;103312.16;;;5.28;77.61
54920;BME280;63804;53.120;8.764;2024-01-27T06:05:32;103326.16;;;5.25;77.90
54920;BME280;63804;53.120;8.764;2024-01-27T06:08:02;103329.72;;;5.18;78.24
54920;BME280;63804;53.120;8.764;2024-01-27T06:10:37;103328.81;;;5.22;77.96
54920;BME280;63804;53.120;8.764;2024-01-27T06:13:08;103337.53;;;5.30;77.89
54920;BME280;63804;53.120;8.764;2024-01-27T06:15:39;103322.66;;;5.26;77.52
54920;BME280;63804;53.120;8.764;2024-01-27T06:18:10;103327.97;;;5.20;77.79
54920;BME280;63804;53.120;8.764;2024-01-27T06:20:41;103334.16;;;5.14;78.01
54920;BME280;63804;53.120;8.764;2024-01-27T06:23:12;103338.41;;;5.28;77.77
54920;BME280;63804;53.120;8.764;2024-01-27T06:25:43;103337.56;;;5.24;77.73
54920;BME280;63804;53.120;8.764;2024-01-27T06:28:13;103343.66;;;5.26;77.37
54920;BME280;63804;53.120;8.764;2024-01-27T06:30:43;103350.69;;;5.26;77.66
54920;BME280;63804;53.120;8.764;2024-01-27T06:33:14;103347.31;;;5.13;78.01
54920;BME280;63804;53.120;8.764;2024-01-27T06:35:44;103344.69;;;5.11;78.03
54920;BME280;63804;53.120;8.764;2024-01-27T06:38:15;103355.13;;;5.21;77.94
54920;BME280;63804;53.120;8.764;2024-01-27T06:40:45;103356.03;;;5.15;77.65
54920;BME280;63804;53.120;8.764;2024-01-27T06:43:15;103363.84;;;5.21;78.04
54920;BME280;63804;53.120;8.764;2024-01-27T06:45:45;103366.50;;;5.21;77.70
54920;BME280;63804;53.120;8.764;2024-01-27T06:48:16;103383.97;;;5.22;77.74
54920;BME280;63804;53.120;8.764;2024-01-27T06:50:46;103373.53;;;5.18;77.57
54920;BME280;63804;53.120;8.764;2024-01-27T06:53:18;103375.31;;;5.12;77.90
54920;BME280;63804;53.120;8.764;2024-01-27T06:55:48;103376.19;;;5.16;77.45
54920;BME280;63804;53.120;8.764;2024-01-27T06:58:19;103374.47;;;5.09;77.66
54920;BME280;63804;53.120;8.764;2024-01-27T07:00:49;103378.78;;;5.14;77.86
54920;BME280;63804;53.120;8.764;2024-01-27T07:03:20;103389.34;;;5.10;77.90
54920;BME280;63804;53.120;8.764;2024-01-27T07:05:50;103384.97;;;5.12;77.99
54920;BME280;63804;53.120;8.764;2024-01-27T07:08:21;103365.63;;;5.18;77.65
54920;BME280;63804;53.120;8.764;2024-01-27T07:10:51;103382.28;;;5.15;77.31
54920;BME280;63804;53.120;8.764;2024-01-27T07:13:21;103391.94;;;5.16;77.86
54920;BME280;63804;53.120;8.764;2024-01-27T07:15:52;103391.06;;;5.11;77.89
54920;BME280;63804;53.120;8.764;2024-01-27T07:18:22;103400.69;;;5.13;77.92
54920;BME280;63804;53.120;8.764;2024-01-27T07:20:53;103386.75;;;5.05;78.15
54920;BME280;63804;53.120;8.764;2024-01-27T07:23:25;103384.91;;;5.18;77.66
54920;BME280;63804;53.120;8.764;2024-01-27T07:25:55;103377.03;;;5.20;77.24
54920;BME280;63804;53.120;8.764;2024-01-27T07:28:25;103377.03;;;5.15;77.92
54920;BME280;63804;53.120;8.764;2024-01-27T07:30:56;103394.59;;;5.10;77.81
54920;BME280;63804;53.120;8.764;2024-01-27T07:33:29;103372.75;;;5.08;78.03
54920;BME280;63804;53.120;8.764;2024-01-27T07:36:00;103395.38;;;5.23;77.49
54920;BME280;63804;53.120;8.764;2024-01-27T07:38:37;103405.91;;;5.18;77.33
54920;BME280;63804;53.120;8.764;2024-01-27T07:41:08;103409.47;;;5.11;77.88
54920;BME280;63804;53.120;8.764;2024-01-27T07:43:39;103417.34;;;5.16;77.68
54920;BME280;63804;53.120;8.764;2024-01-27T07:46:10;103412.91;;;5.21;77.64
54920;BME280;63804;53.120;8.764;2024-01-27T07:48:40;103419.03;;;5.21;77.44
54920;BME280;63804;53.120;8.764;2024-01-27T07:51:12;103415.47;;;5.25;77.57
54920;BME280;63804;53.120;8.764;2024-01-27T07:53:42;103414.66;;;5.20;77.62
54920;BME280;63804;53.120;8.764;2024-01-27T07:56:13;103427.78;;;5.20;77.26
54920;BME280;63804;53.120;8.764;2024-01-27T07:58:43;103426.84;;;5.29;77.21
54920;BME280;63804;53.120;8.764;2024-01-27T08:01:15;103433.88;;;5.27;77.63
54920;BME280;63804;53.120;8.764;2024-01-27T08:03:46;103432.91;;;5.34;76.81
54920;BME280;63804;53.120;8.764;2024-01-27T08:06:21;103427.59;;;5.42;76.57
54920;BME280;63804;53.120;8.764;2024-01-27T08:08:52;103442.50;;;5.41;76.64
54920;BME280;63804;53.120;8.764;2024-01-27T08:11:22;103438.22;;;5.29;77.09
54920;BME280;63804;53.120;8.764;2024-01-27T08:13:54;103441.72;;;5.30;77.15
54920;BME280;63804;53.120;8.764;2024-01-27T08:16:25;103441.66;;;5.36;76.89
54920;BME280;63804;53.120;8.764;2024-01-27T08:18:56;103439.13;;;5.27;77.43
54920;BME280;63804;53.120;8.764;2024-01-27T08:21:27;103451.28;;;5.37;76.91
54920;BME280;63804;53.120;8.764;2024-01-27T08:23:58;103446.91;;;5.39;77.11
54920;BME280;63804;53.120;8.764;2024-01-27T08:26:32;103451.28;;;5.40;76.96
54920;BME280;63804;53.120;8.764;2024-01-27T08:29:02;103448.69;;;5.32;77.34
54920;BME280;63804;53.120;8.764;2024-01-27T08:31:37;103446.06;;;5.35;76.97
54920;BME280;63804;53.120;8.764;2024-01-27T08:34:09;103453.84;;;5.46;77.15
54920;BME280;63804;53.120;8.764;2024-01-27T08:36:43;103453.91;;;5.40;76.76
54920;BME280;63804;53.120;8.764;2024-01-27T08:39:13;103447.78;;;5.36;77.40
54920;BME280;63804;53.120;8.764;2024-01-27T08:41:44;103452.06;;;5.51;77.16
54920;BME280;63804;53.120;8.764;2024-01-27T08:44:15;103460.75;;;5.56;76.97
54920;BME280;63804;53.120;8.764;2024-01-27T08:46:45;103461.56;;;5.66;76.86
54920;BME280;63804;53.120;8.764;2024-01-27T08:49:15;103466.78;;;5.69;76.55
54920;BME280;63804;53.120;8.764;2024-01-27T08:51:46;103473.72;;;5.75;76.29
54920;BME280;63804;53.120;8.764;2024-01-27T08:54:17;103472.00;;;5.74;76.60
54920;BME280;63804;53.120;8.764;2024-01-27T08:56:47;103470.28;;;5.70;76.54
54920;BME280;63804;53.120;8.764;2024-01-27T08:59:18;103474.63;;;5.72;76.43
54920;BME280;63804;53.120;8.764;2024-01-27T09:01:48;103467.66;;;5.70;76.42
54920;BME280;63804;53.120;8.764;2024-01-27T09:04:19;103478.91;;;5.82;76.02
54920;BME280;63804;53.120;8.764;2024-01-27T09:06:49;103484.19;;;5.84;76.20
54920;BME280;63804;53.120;8.764;2024-01-27T09:09:20;103484.13;;;5.87;76.30
54920;BME280;63804;53.120;8.764;2024-01-27T09:11:50;103498.97;;;5.97;75.83
54920;BME280;63804;53.120;8.764;2024-01-27T09:14:21;103499.84;;;5.99;76.10
54920;BME280;63804;53.120;8.764;2024-01-27T09:16:52;103488.56;;;5.82;76.45
54920;BME280;63804;53.120;8.764;2024-01-27T09:19:22;103502.38;;;6.07;75.60
54920;BME280;63804;53.120;8.764;2024-01-27T09:21:53;103498.84;;;6.09;75.52
54920;BME280;63804;53.120;8.764;2024-01-27T09:24:24;103500.63;;;6.07;75.83
54920;BME280;63804;53.120;8.764;2024-01-27T09:26:54;103498.78;;;6.16;75.49
54920;BME280;63804;53.120;8.764;2024-01-27T09:29:25;103504.84;;;6.21;75.28
54920;BME280;63804;53.120;8.764;2024-01-27T09:31:55;103495.16;;;6.26;75.17
54920;BME280;63804;53.120;8.764;2024-01-27T09:34:26;103504.75;;;6.31;74.97
54920;BME280;63804;53.120;8.764;2024-01-27T09:36:58;103504.78;;;6.30;75.35
54920;BME280;63804;53.120;8.764;2024-01-27T09:39:32;103488.22;;;6.19;75.47
54920;BME280;63804;53.120;8.764;2024-01-27T09:42:06;103500.41;;;6.27;75.77
54920;BME280;63804;53.120;8.764;2024-01-27T09:44:39;103502.03;;;6.36;75.42
54920;BME280;63804;53.120;8.764;2024-01-27T09:47:11;103507.31;;;6.38;75.08
54920;BME280;63804;53.120;8.764;2024-01-27T09:49:42;103505.44;;;6.46;75.25
54920;BME280;63804;53.120;8.764;2024-01-27T09:52:13;103516.72;;;6.57;74.54
54920;BME280;63804;53.120;8.764;2024-01-27T09:54:44;103511.59;;;6.45;74.80
54920;BME280;63804;53.120;8.764;2024-01-27T09:57:15;103516.66;;;6.60;74.65
54920;BME280;63804;53.120;8.764;2024-01-27T09:59:46;103515.06;;;6.50;74.82
54920;BME280;63804;53.120;8.764;2024-01-27T10:02:18;103529.06;;;6.52;75.19
54920;BME280;63804;53.120;8.764;2024-01-27T10:04:50;103515.84;;;6.55;74.94
54920;BME280;63804;53.120;8.764;2024-01-27T10:07:21;103514.06;;;6.58;74.56
54920;BME280;63804;53.120;8.764;2024-01-27T10:09:53;103502.72;;;6.52;74.93
54920;BME280;63804;53.120;8.764;2024-01-27T10:12:25;103506.19;;;6.57;74.87
54920;BME280;63804;53.120;8.764;2024-01-27T10:15:00;103512.19;;;6.67;74.71
54920;BME280;63804;53.120;8.764;2024-01-27T10:17:40;103508.63;;;6.71;74.66
54920;BME280;63804;53.120;8.764;2024-01-27T10:20:11;103512.19;;;6.68;74.74
54920;BME280;63804;53.120;8.764;2024-01-27T10:22:47;103510.28;;;6.79;74.45
54920;BME280;63804;53.120;8.764;2024-01-27T10:25:17;103510.13;;;6.90;74.35
54920;BME280;63804;53.120;8.764;2024-01-27T10:27:47;103517.06;;;6.99;73.94
54920;BME280;63804;53.120;8.764;2024-01-27T10:30:18;103514.47;;;6.96;74.14
54920;BME280;63804;53.120;8.764;2024-01-27T10:32:57;103518.03;;;6.92;74.50
54920;BME280;63804;53.120;8.764;2024-01-27T10:35:32;103508.44;;;6.88;74.36
54920;BME280;63804;53.120;8.764;2024-01-27T10:38:03;103521.59;;;6.88;74.40
54920;BME280;63804;53.120;8.764;2024-01-27T10:40:38;103518.97;;;6.86;74.88
54920;BME280;63804;53.120;8.764;2024-01-27T10:43:09;103525.09;;;6.88;74.76
54920;BME280;63804;53.120;8.764;2024-01-27T10:45:41;103518.16;;;6.81;74.70
54920;BME280;63804;53.120;8.764;2024-01-27T10:48:12;103513.81;;;6.78;75.08
54920;BME280;63804;53.120;8.764;2024-01-27T10:50:43;103519.69;;;6.97;74.51
54920;BME280;63804;53.120;8.764;2024-01-27T10:53:22;103522.31;;;6.99;74.09
54920;BME280;63804;53.120;8.764;2024-01-27T10:55:57;103518.00;;;6.93;74.67
54920;BME280;63804;53.120;8.764;2024-01-27T10:58:33;103523.22;;;6.96;74.55
54920;BME280;63804;53.120;8.764;2024-01-27T11:01:11;103524.06;;;7.00;74.83
54920;BME280;63804;53.120;8.764;2024-01-27T11:03:44;103523.03;;;7.08;74.63
54920;BME280;63804;53.120;8.764;2024-01-27T11:06:15;103524.75;;;7.14;74.26
54920;BME280;63804;53.120;8.764;2024-01-27T11:08:51;103515.09;;;7.12;74.34
54920;BME280;63804;53.120;8.764;2024-01-27T11:11:22;103519.34;;;7.22;74.27
54920;BME280;63804;53.120;8.764;2024-01-27T11:13:53;103520.03;;;7.35;74.04
54920;BME280;63804;53.120;8.764;2024-01-27T11:16:23;103506.94;;;7.28;74.14
54920;BME280;63804;53.120;8.764;2024-01-27T11:18:54;103508.50;;;7.42;73.91
54920;BME280;63804;53.120;8.764;2024-01-27T11:21:25;103501.38;;;7.48;73.86
54920;BME280;63804;53.120;8.764;2024-01-27T11:23:55;103477.75;;;7.39;73.73
54920;BME280;63804;53.120;8.764;2024-01-27T11:26:26;103513.59;;;7.51;73.81
54920;BME280;63804;53.120;8.764;2024-01-27T11:29:06;103513.44;;;7.62;73.22
54920;BME280;63804;53.120;8.764;2024-01-27T11:31:40;103524.75;;;7.68;72.98
54920;BME280;63804;53.120;8.764;2024-01-27T11:34:11;103530.00;;;7.71;72.64
54920;BME280;63804;53.120;8.764;2024-01-27T11:36:43;103536.91;;;7.77;72.80
54920;BME280;63804;53.120;8.764;2024-01-27T11:44:39;103545.44;;;7.93;72.02
54920;BME280;63804;53.120;8.764;2024-01-27T11:47:15;103529.63;;;7.91;71.89
54920;BME280;63804;53.120;8.764;2024-01-27T11:49:54;103549.59;;;8.06;71.85
54920;BME280;63804;53.120;8.764;2024-01-27T11:52:28;103537.28;;;8.06;71.81
54920;BME280;63804;53.120;8.764;2024-01-27T11:54:59;103547.78;;;8.10;72.04
54920;BME280;63804;53.120;8.764;2024-01-27T11:57:39;103550.25;;;8.19;71.62
54920;BME280;63804;53.120;8.764;2024-01-27T12:00:10;103544.00;;;8.24;71.36
54920;BME280;63804;53.120;8.764;2024-01-27T12:02:43;103544.00;;;8.24;71.27
54920;BME280;63804;53.120;8.764;2024-01-27T12:05:14;103525.66;;;8.15;71.37
54920;BME280;63804;53.120;8.764;2024-01-27T12:07:46;103535.31;;;8.18;71.62
54920;BME280;63804;53.120;8.764;2024-01-27T12:10:16;103532.53;;;8.25;71.41
54920;BME280;63804;53.120;8.764;2024-01-27T12:12:45;103521.97;;;8.24;71.14
54920;BME280;63804;53.120;8.764;2024-01-27T12:15:15;103528.06;;;8.29;71.14
54920;BME280;63804;53.120;8.764;2024-01-27T12:17:51;103532.31;;;8.38;70.95
54920;BME280;63804;53.120;8.764;2024-01-27T12:20:22;103529.69;;;8.36;71.24
54920;BME280;63804;53.120;8.764;2024-01-27T12:23:06;103531.41;;;8.40;70.15
54920;BME280;63804;53.120;8.764;2024-01-27T12:25:38;103528.72;;;8.42;70.67
54920;BME280;63804;53.120;8.764;2024-01-27T12:28:11;103533.03;;;8.47;70.38
54920;BME280;63804;53.120;8.764;2024-01-27T12:30:42;103537.34;;;8.50;69.97
54920;BME280;63804;53.120;8.764;2024-01-27T12:33:13;103547.09;;;8.46;70.12
54920;BME280;63804;53.120;8.764;2024-01-27T12:35:43;103541.00;;;8.44;70.21
54920;BME280;63804;53.120;8.764;2024-01-27T12:38:14;103530.38;;;8.47;70.14
54920;BME280;63804;53.120;8.764;2024-01-27T12:40:44;103521.56;;;8.47;70.07
54920;BME280;63804;53.120;8.764;2024-01-27T12:43:15;103521.50;;;8.51;70.10
54920;BME280;63804;53.120;8.764;2024-01-27T12:45:45;103524.91;;;8.57;70.11
54920;BME280;63804;53.120;8.764;2024-01-27T12:48:16;103514.22;;;8.63;70.18
54920;BME280;63804;53.120;8.764;2024-01-27T12:50:47;103523.88;;;8.62;69.61
54920;BME280;63804;53.120;8.764;2024-01-27T12:53:17;103518.69;;;8.59;69.58
54920;BME280;63804;53.120;8.764;2024-01-27T12:55:48;103520.47;;;8.57;69.77
54920;BME280;63804;53.120;8.764;2024-01-27T12:58:18;103520.41;;;8.60;69.75
54920;BME280;63804;53.120;8.764;2024-01-27T13:00:49;103520.38;;;8.62;69.83
54920;BME280;63804;53.120;8.764;2024-01-27T13:03:20;103523.66;;;8.73;69.40
54920;BME280;63804;53.120;8.764;2024-01-27T13:05:50;103509.69;;;8.68;69.76
54920;BME280;63804;53.120;8.764;2024-01-27T13:08:21;103522.69;;;8.77;69.48
54920;BME280;63804;53.120;8.764;2024-01-27T13:10:55;103515.78;;;8.70;69.87
54920;BME280;63804;53.120;8.764;2024-01-27T13:13:25;103510.50;;;8.70;69.96
54920;BME280;63804;53.120;8.764;2024-01-27T13:15:56;103532.41;;;8.76;69.72
54920;BME280;63804;53.120;8.764;2024-01-27T13:18:26;103517.38;;;8.78;69.61
54920;BME280;63804;53.120;8.764;2024-01-27T13:20:57;103522.63;;;8.80;69.44
54920;BME280;63804;53.120;8.764;2024-01-27T13:23:33;103525.44;;;8.74;69.74
54920;BME280;63804;53.120;8.764;2024-01-27T13:26:04;103521.16;;;8.67;69.75
54920;BME280;63804;53.120;8.764;2024-01-27T13:28:47;103527.31;;;8.66;69.85